sensor_id;sensor_type;location;lat;lon;timestamp;P1;durP1;ratioP1;P2;durP2;ratioP2
7171;SDS011;3627;46.544;14.944;2023-01-25T00:00:16;9.30;;;7.27;;
7171;SDS011;3627;46.544;14.944;2023-01-25T00:02:43;8.98;;;7.10;;
7171;SDS011;3627;46.544;14.944;2023-01-25T00:05:09;8.30;;;5.95;;
7171;SDS011;3627;46.544;14.944;2023-01-25T00:07:35;10.77;;;6.70;;
7171;SDS011;3627;46.544;14.944;2023-01-25T00:10:02;9.77;;;6.37;;
7171;SDS011;3627;46.544;14.944;2023-01-25T00:12:28;10.07;;;6.67;;
7171;SDS011;3627;46.544;14.944;2023-01-25T00:14:56;10.50;;;6.83;;
7171;SDS011;3627;46.544;14.944;2023-01-25T00:17:22;7.90;;;6.28;;
7171;SDS011;3627;46.544;14.944;2023-01-25T00:19:49;11.07;;;6.33;;
7171;SDS011;3627;46.544;14.944;2023-01-25T00:22:15;9.30;;;6.85;;
7171;SDS011;3627;46.544;14.944;2023-01-25T00:24:41;8.50;;;5.57;;
7171;SDS011;3627;46.544;14.944;2023-01-25T00:27:08;10.45;;;6.15;;
7171;SDS011;3627;46.544;14.944;2023-01-25T00:29:34;7.43;;;5.65;;
7171;SDS011;3627;46.544;14.944;2023-01-25T00:32:07;8.57;;;6.93;;
7171;SDS011;3627;46.544;14.944;2023-01-25T00:34:50;8.88;;;5.60;;
7171;SDS011;3627;46.544;14.944;2023-01-25T00:37:23;8.57;;;6.10;;
7171;SDS011;3627;46.544;14.944;2023-01-25T00:39:49;6.53;;;5.40;;
7171;SDS011;3627;46.544;14.944;2023-01-25T00:42:16;10.02;;;6.03;;
7171;SDS011;3627;46.544;14.944;2023-01-25T00:44:43;9.35;;;6.03;;
7171;SDS011;3627;46.544;14.944;2023-01-25T00:47:10;8.03;;;5.87;;
7171;SDS011;3627;46.544;14.944;2023-01-25T00:49:37;8.65;;;6.40;;
7171;SDS011;3627;46.544;14.944;2023-01-25T00:52:05;9.70;;;6.63;;
7171;SDS011;3627;46.544;14.944;2023-01-25T00:54:31;10.55;;;6.78;;
7171;SDS011;3627;46.544;14.944;2023-01-25T00:56:58;9.35;;;6.63;;
7171;SDS011;3627;46.544;14.944;2023-01-25T00:59:24;8.37;;;6.03;;
7171;SDS011;3627;46.544;14.944;2023-01-25T01:01:51;7.82;;;5.38;;
7171;SDS011;3627;46.544;14.944;2023-01-25T01:04:18;8.63;;;6.60;;
7171;SDS011;3627;46.544;14.944;2023-01-25T01:06:44;8.98;;;5.82;;
7171;SDS011;3627;46.544;14.944;2023-01-25T01:09:13;9.67;;;5.80;;
7171;SDS011;3627;46.544;14.944;2023-01-25T01:11:39;7.23;;;5.70;;
7171;SDS011;3627;46.544;14.944;2023-01-25T01:14:06;8.47;;;6.43;;
7171;SDS011;3627;46.544;14.944;2023-01-25T01:16:32;9.97;;;6.60;;
7171;SDS011;3627;46.544;14.944;2023-01-25T01:18:58;9.07;;;7.00;;
7171;SDS011;3627;46.544;14.944;2023-01-25T01:21:25;9.37;;;7.33;;
7171;SDS011;3627;46.544;14.944;2023-01-25T01:23:52;9.07;;;7.00;;
7171;SDS011;3627;46.544;14.944;2023-01-25T01:26:20;10.53;;;7.23;;
7171;SDS011;3627;46.544;14.944;2023-01-25T01:28:46;11.47;;;8.13;;
7171;SDS011;3627;46.544;14.944;2023-01-25T01:31:14;11.43;;;8.53;;
7171;SDS011;3627;46.544;14.944;2023-01-25T01:33:41;11.37;;;8.00;;
7171;SDS011;3627;46.544;14.944;2023-01-25T01:36:07;12.23;;;7.60;;
7171;SDS011;3627;46.544;14.944;2023-01-25T01:38:34;10.87;;;6.57;;
7171;SDS011;3627;46.544;14.944;2023-01-25T01:41:00;7.90;;;5.80;;
7171;SDS011;3627;46.544;14.944;2023-01-25T01:43:28;8.30;;;5.40;;
7171;SDS011;3627;46.544;14.944;2023-01-25T01:45:56;9.60;;;5.83;;
7171;SDS011;3627;46.544;14.944;2023-01-25T01:48:27;8.63;;;5.60;;
7171;SDS011;3627;46.544;14.944;2023-01-25T01:50:56;8.23;;;6.07;;
7171;SDS011;3627;46.544;14.944;2023-01-25T01:53:24;8.63;;;6.17;;
7171;SDS011;3627;46.544;14.944;2023-01-25T01:55:51;7.47;;;5.53;;
7171;SDS011;3627;46.544;14.944;2023-01-25T01:58:18;9.70;;;5.97;;
7171;SDS011;3627;46.544;14.944;2023-01-25T02:00:46;8.17;;;5.73;;
7171;SDS011;3627;46.544;14.944;2023-01-25T02:03:12;7.50;;;5.83;;
7171;SDS011;3627;46.544;14.944;2023-01-25T02:05:39;6.73;;;5.13;;
7171;SDS011;3627;46.544;14.944;2023-01-25T02:08:08;9.97;;;6.27;;
7171;SDS011;3627;46.544;14.944;2023-01-25T02:10:35;9.20;;;6.30;;
7171;SDS011;3627;46.544;14.944;2023-01-25T02:13:02;8.37;;;6.00;;
7171;SDS011;3627;46.544;14.944;2023-01-25T02:15:30;9.20;;;6.23;;
7171;SDS011;3627;46.544;14.944;2023-01-25T02:17:59;10.37;;;6.53;;
7171;SDS011;3627;46.544;14.944;2023-01-25T02:20:27;9.20;;;6.40;;
7171;SDS011;3627;46.544;14.944;2023-01-25T02:22:55;8.37;;;6.60;;
7171;SDS011;3627;46.544;14.944;2023-01-25T02:25:25;11.67;;;7.70;;
7171;SDS011;3627;46.544;14.944;2023-01-25T02:27:52;10.70;;;6.63;;
7171;SDS011;3627;46.544;14.944;2023-01-25T02:30:20;9.37;;;6.67;;
7171;SDS011;3627;46.544;14.944;2023-01-25T02:32:47;12.70;;;6.83;;
7171;SDS011;3627;46.544;14.944;2023-01-25T02:35:17;10.50;;;7.10;;
7171;SDS011;3627;46.544;14.944;2023-01-25T02:37:44;7.83;;;6.10;;
7171;SDS011;3627;46.544;14.944;2023-01-25T02:40:11;9.27;;;6.33;;
7171;SDS011;3627;46.544;14.944;2023-01-25T02:42:41;8.67;;;6.63;;
7171;SDS011;3627;46.544;14.944;2023-01-25T02:45:07;9.30;;;6.33;;
7171;SDS011;3627;46.544;14.944;2023-01-25T02:47:35;8.63;;;6.57;;
7171;SDS011;3627;46.544;14.944;2023-01-25T02:50:01;10.10;;;6.97;;
7171;SDS011;3627;46.544;14.944;2023-01-25T02:52:27;8.10;;;5.80;;
7171;SDS011;3627;46.544;14.944;2023-01-25T02:54:54;8.43;;;6.60;;
7171;SDS011;3627;46.544;14.944;2023-01-25T02:57:20;14.77;;;8.80;;
7171;SDS011;3627;46.544;14.944;2023-01-25T02:59:48;16.57;;;8.13;;
7171;SDS011;3627;46.544;14.944;2023-01-25T03:02:14;12.40;;;7.30;;
7171;SDS011;3627;46.544;14.944;2023-01-25T03:04:40;10.87;;;7.70;;
7171;SDS011;3627;46.544;14.944;2023-01-25T03:07:07;12.47;;;7.90;;
7171;SDS011;3627;46.544;14.944;2023-01-25T03:09:33;10.47;;;8.17;;
7171;SDS011;3627;46.544;14.944;2023-01-25T03:12:00;9.47;;;7.20;;
7171;SDS011;3627;46.544;14.944;2023-01-25T03:14:26;8.33;;;6.70;;
7171;SDS011;3627;46.544;14.944;2023-01-25T03:16:54;10.53;;;6.20;;
7171;SDS011;3627;46.544;14.944;2023-01-25T03:19:20;9.83;;;6.87;;
7171;SDS011;3627;46.544;14.944;2023-01-25T03:21:46;9.17;;;6.77;;
7171;SDS011;3627;46.544;14.944;2023-01-25T03:24:13;8.90;;;6.23;;
7171;SDS011;3627;46.544;14.944;2023-01-25T03:26:39;9.93;;;7.33;;
7171;SDS011;3627;46.544;14.944;2023-01-25T03:29:19;8.80;;;5.53;;
7171;SDS011;3627;46.544;14.944;2023-01-25T03:31:46;7.93;;;6.30;;
7171;SDS011;3627;46.544;14.944;2023-01-25T03:34:13;8.00;;;5.87;;
7171;SDS011;3627;46.544;14.944;2023-01-25T03:36:40;11.20;;;6.90;;
7171;SDS011;3627;46.544;14.944;2023-01-25T03:39:06;10.77;;;6.63;;
7171;SDS011;3627;46.544;14.944;2023-01-25T03:41:33;8.00;;;6.37;;
7171;SDS011;3627;46.544;14.944;2023-01-25T03:43:59;11.17;;;7.03;;
7171;SDS011;3627;46.544;14.944;2023-01-25T03:46:25;9.33;;;6.37;;
7171;SDS011;3627;46.544;14.944;2023-01-25T03:48:52;11.10;;;6.67;;
7171;SDS011;3627;46.544;14.944;2023-01-25T03:51:19;12.63;;;7.30;;
7171;SDS011;3627;46.544;14.944;2023-01-25T03:53:46;12.83;;;7.57;;
7171;SDS011;3627;46.544;14.944;2023-01-25T03:56:12;10.83;;;7.10;;
7171;SDS011;3627;46.544;14.944;2023-01-25T03:58:44;11.77;;;7.27;;
7171;SDS011;3627;46.544;14.944;2023-01-25T04:01:10;10.47;;;7.23;;
7171;SDS011;3627;46.544;14.944;2023-01-25T04:03:37;10.23;;;7.30;;
7171;SDS011;3627;46.544;14.944;2023-01-25T04:06:03;10.57;;;7.37;;
7171;SDS011;3627;46.544;14.944;2023-01-25T04:08:31;9.67;;;7.33;;
7171;SDS011;3627;46.544;14.944;2023-01-25T04:11:00;11.63;;;7.60;;
7171;SDS011;3627;46.544;14.944;2023-01-25T04:13:27;10.73;;;6.67;;
7171;SDS011;3627;46.544;14.944;2023-01-25T04:15:53;12.90;;;8.50;;
7171;SDS011;3627;46.544;14.944;2023-01-25T04:18:19;13.90;;;8.53;;
7171;SDS011;3627;46.544;14.944;2023-01-25T04:20:50;12.97;;;8.67;;
7171;SDS011;3627;46.544;14.944;2023-01-25T04:23:17;17.70;;;9.83;;
7171;SDS011;3627;46.544;14.944;2023-01-25T04:25:50;15.77;;;9.13;;
7171;SDS011;3627;46.544;14.944;2023-01-25T04:28:17;13.53;;;9.10;;
7171;SDS011;3627;46.544;14.944;2023-01-25T04:30:43;14.53;;;9.07;;
7171;SDS011;3627;46.544;14.944;2023-01-25T04:33:10;15.90;;;9.83;;
7171;SDS011;3627;46.544;14.944;2023-01-25T04:35:37;16.63;;;10.07;;
7171;SDS011;3627;46.544;14.944;2023-01-25T04:38:03;13.80;;;8.97;;
7171;SDS011;3627;46.544;14.944;2023-01-25T04:40:30;10.90;;;7.57;;
7171;SDS011;3627;46.544;14.944;2023-01-25T04:42:58;9.83;;;7.70;;
7171;SDS011;3627;46.544;14.944;2023-01-25T04:45:24;11.30;;;6.83;;
7171;SDS011;3627;46.544;14.944;2023-01-25T04:47:54;11.43;;;7.30;;
7171;SDS011;3627;46.544;14.944;2023-01-25T04:50:20;10.00;;;7.03;;
7171;SDS011;3627;46.544;14.944;2023-01-25T04:52:47;13.83;;;8.13;;
7171;SDS011;3627;46.544;14.944;2023-01-25T04:55:13;12.70;;;8.80;;
7171;SDS011;3627;46.544;14.944;2023-01-25T04:57:39;13.43;;;7.67;;
7171;SDS011;3627;46.544;14.944;2023-01-25T05:00:09;14.73;;;9.13;;
7171;SDS011;3627;46.544;14.944;2023-01-25T05:02:35;16.90;;;10.17;;
7171;SDS011;3627;46.544;14.944;2023-01-25T05:05:03;20.40;;;9.70;;
7171;SDS011;3627;46.544;14.944;2023-01-25T05:07:30;17.13;;;10.47;;
7171;SDS011;3627;46.544;14.944;2023-01-25T05:09:56;16.60;;;10.57;;
7171;SDS011;3627;46.544;14.944;2023-01-25T05:12:23;11.17;;;7.97;;
7171;SDS011;3627;46.544;14.944;2023-01-25T05:14:49;9.73;;;7.30;;
7171;SDS011;3627;46.544;14.944;2023-01-25T05:17:17;9.73;;;7.13;;
7171;SDS011;3627;46.544;14.944;2023-01-25T05:19:43;14.37;;;8.40;;
7171;SDS011;3627;46.544;14.944;2023-01-25T05:22:11;12.63;;;7.93;;
7171;SDS011;3627;46.544;14.944;2023-01-25T05:24:38;9.07;;;6.77;;
7171;SDS011;3627;46.544;14.944;2023-01-25T05:27:05;11.17;;;7.07;;
7171;SDS011;3627;46.544;14.944;2023-01-25T05:29:32;11.10;;;8.23;;
7171;SDS011;3627;46.544;14.944;2023-01-25T05:32:00;11.97;;;7.00;;
7171;SDS011;3627;46.544;14.944;2023-01-25T05:34:28;7.27;;;6.47;;
7171;SDS011;3627;46.544;14.944;2023-01-25T05:36:55;9.47;;;6.37;;
7171;SDS011;3627;46.544;14.944;2023-01-25T05:39:21;9.80;;;6.43;;
7171;SDS011;3627;46.544;14.944;2023-01-25T05:41:48;8.50;;;6.77;;
7171;SDS011;3627;46.544;14.944;2023-01-25T05:44:14;9.00;;;5.67;;
7171;SDS011;3627;46.544;14.944;2023-01-25T05:46:41;8.07;;;6.03;;
7171;SDS011;3627;46.544;14.944;2023-01-25T05:49:08;7.80;;;6.13;;
7171;SDS011;3627;46.544;14.944;2023-01-25T05:51:36;8.43;;;5.30;;
7171;SDS011;3627;46.544;14.944;2023-01-25T05:54:03;10.00;;;6.30;;
7171;SDS011;3627;46.544;14.944;2023-01-25T05:56:29;10.40;;;7.00;;
7171;SDS011;3627;46.544;14.944;2023-01-25T05:58:56;12.47;;;8.40;;
7171;SDS011;3627;46.544;14.944;2023-01-25T06:01:23;12.93;;;8.23;;
7171;SDS011;3627;46.544;14.944;2023-01-25T06:03:50;12.43;;;8.13;;
7171;SDS011;3627;46.544;14.944;2023-01-25T06:06:16;9.83;;;7.63;;
7171;SDS011;3627;46.544;14.944;2023-01-25T06:08:44;12.60;;;9.10;;
7171;SDS011;3627;46.544;14.944;2023-01-25T06:11:11;9.77;;;8.37;;
7171;SDS011;3627;46.544;14.944;2023-01-25T06:13:38;10.60;;;7.27;;
7171;SDS011;3627;46.544;14.944;2023-01-25T06:16:04;10.80;;;7.30;;
7171;SDS011;3627;46.544;14.944;2023-01-25T06:18:31;14.07;;;8.97;;
7171;SDS011;3627;46.544;14.944;2023-01-25T06:20:58;13.77;;;9.13;;
7171;SDS011;3627;46.544;14.944;2023-01-25T06:23:25;14.90;;;9.00;;
7171;SDS011;3627;46.544;14.944;2023-01-25T06:25:56;13.93;;;8.70;;
7171;SDS011;3627;46.544;14.944;2023-01-25T06:28:22;14.93;;;8.43;;
7171;SDS011;3627;46.544;14.944;2023-01-25T06:30:49;10.60;;;6.60;;
7171;SDS011;3627;46.544;14.944;2023-01-25T06:33:15;11.85;;;8.10;;
7171;SDS011;3627;46.544;14.944;2023-01-25T06:35:41;11.73;;;7.93;;
7171;SDS011;3627;46.544;14.944;2023-01-25T06:38:08;14.80;;;9.40;;
7171;SDS011;3627;46.544;14.944;2023-01-25T06:40:35;15.33;;;9.50;;
7171;SDS011;3627;46.544;14.944;2023-01-25T06:43:06;18.43;;;9.97;;
7171;SDS011;3627;46.544;14.944;2023-01-25T06:45:32;16.63;;;9.30;;
7171;SDS011;3627;46.544;14.944;2023-01-25T06:47:58;12.27;;;8.73;;
7171;SDS011;3627;46.544;14.944;2023-01-25T06:50:25;13.93;;;8.07;;
7171;SDS011;3627;46.544;14.944;2023-01-25T06:52:51;12.00;;;8.40;;
7171;SDS011;3627;46.544;14.944;2023-01-25T06:55:18;17.27;;;9.03;;
7171;SDS011;3627;46.544;14.944;2023-01-25T06:57:44;19.37;;;12.03;;
7171;SDS011;3627;46.544;14.944;2023-01-25T07:00:12;20.53;;;12.17;;
7171;SDS011;3627;46.544;14.944;2023-01-25T07:02:39;14.73;;;10.13;;
7171;SDS011;3627;46.544;14.944;2023-01-25T07:05:06;19.10;;;11.53;;
7171;SDS011;3627;46.544;14.944;2023-01-25T07:07:33;15.03;;;10.37;;
7171;SDS011;3627;46.544;14.944;2023-01-25T07:09:59;21.90;;;11.40;;
7171;SDS011;3627;46.544;14.944;2023-01-25T07:12:27;15.97;;;10.63;;
7171;SDS011;3627;46.544;14.944;2023-01-25T07:14:53;15.83;;;10.87;;
7171;SDS011;3627;46.544;14.944;2023-01-25T07:17:21;15.23;;;9.70;;
7171;SDS011;3627;46.544;14.944;2023-01-25T07:19:47;15.07;;;9.73;;
7171;SDS011;3627;46.544;14.944;2023-01-25T07:22:14;16.30;;;9.77;;
7171;SDS011;3627;46.544;14.944;2023-01-25T07:24:42;13.70;;;9.70;;
7171;SDS011;3627;46.544;14.944;2023-01-25T07:27:13;12.47;;;7.83;;
7171;SDS011;3627;46.544;14.944;2023-01-25T07:29:40;12.05;;;8.52;;
7171;SDS011;3627;46.544;14.944;2023-01-25T07:32:06;13.70;;;8.47;;
7171;SDS011;3627;46.544;14.944;2023-01-25T07:34:34;12.55;;;7.97;;
7171;SDS011;3627;46.544;14.944;2023-01-25T07:37:00;11.17;;;7.70;;
7171;SDS011;3627;46.544;14.944;2023-01-25T07:39:27;13.37;;;8.90;;
7171;SDS011;3627;46.544;14.944;2023-01-25T07:41:53;14.83;;;10.00;;
7171;SDS011;3627;46.544;14.944;2023-01-25T07:44:19;17.13;;;10.53;;
7171;SDS011;3627;46.544;14.944;2023-01-25T07:46:46;15.90;;;10.57;;
7171;SDS011;3627;46.544;14.944;2023-01-25T07:49:12;17.87;;;11.50;;
7171;SDS011;3627;46.544;14.944;2023-01-25T07:51:40;17.00;;;12.13;;
7171;SDS011;3627;46.544;14.944;2023-01-25T07:54:09;23.33;;;12.47;;
7171;SDS011;3627;46.544;14.944;2023-01-25T07:56:36;15.20;;;10.82;;
7171;SDS011;3627;46.544;14.944;2023-01-25T07:59:04;18.00;;;11.10;;
7171;SDS011;3627;46.544;14.944;2023-01-25T08:01:32;17.95;;;10.18;;
7171;SDS011;3627;46.544;14.944;2023-01-25T08:04:01;14.38;;;9.85;;
7171;SDS011;3627;46.544;14.944;2023-01-25T08:06:28;14.52;;;8.85;;
7171;SDS011;3627;46.544;14.944;2023-01-25T08:09:01;12.10;;;8.68;;
7171;SDS011;3627;46.544;14.944;2023-01-25T08:11:28;15.43;;;9.05;;
7171;SDS011;3627;46.544;14.944;2023-01-25T08:13:55;12.40;;;8.23;;
7171;SDS011;3627;46.544;14.944;2023-01-25T08:16:22;11.75;;;8.25;;
7171;SDS011;3627;46.544;14.944;2023-01-25T08:18:48;12.88;;;8.85;;
7171;SDS011;3627;46.544;14.944;2023-01-25T08:21:15;14.00;;;8.63;;
7171;SDS011;3627;46.544;14.944;2023-01-25T08:23:41;14.63;;;9.35;;
7171;SDS011;3627;46.544;14.944;2023-01-25T08:26:10;12.85;;;8.50;;
7171;SDS011;3627;46.544;14.944;2023-01-25T08:28:36;12.23;;;8.50;;
7171;SDS011;3627;46.544;14.944;2023-01-25T08:31:04;12.48;;;8.15;;
7171;SDS011;3627;46.544;14.944;2023-01-25T08:33:30;10.80;;;7.72;;
7171;SDS011;3627;46.544;14.944;2023-01-25T08:35:57;14.82;;;8.50;;
7171;SDS011;3627;46.544;14.944;2023-01-25T08:38:23;12.68;;;8.00;;
7171;SDS011;3627;46.544;14.944;2023-01-25T08:40:49;11.13;;;8.10;;
7171;SDS011;3627;46.544;14.944;2023-01-25T08:43:17;12.15;;;8.80;;
7171;SDS011;3627;46.544;14.944;2023-01-25T08:45:43;15.63;;;9.18;;
7171;SDS011;3627;46.544;14.944;2023-01-25T08:48:10;16.10;;;9.55;;
7171;SDS011;3627;46.544;14.944;2023-01-25T08:50:43;13.07;;;8.18;;
7171;SDS011;3627;46.544;14.944;2023-01-25T08:53:10;9.48;;;6.90;;
7171;SDS011;3627;46.544;14.944;2023-01-25T08:55:36;11.18;;;7.68;;
7171;SDS011;3627;46.544;14.944;2023-01-25T08:58:02;9.38;;;7.00;;
7171;SDS011;3627;46.544;14.944;2023-01-25T09:00:30;12.23;;;8.77;;
7171;SDS011;3627;46.544;14.944;2023-01-25T09:02:56;15.30;;;8.45;;
7171;SDS011;3627;46.544;14.944;2023-01-25T09:05:23;13.05;;;8.20;;
7171;SDS011;3627;46.544;14.944;2023-01-25T09:07:49;13.85;;;8.63;;
7171;SDS011;3627;46.544;14.944;2023-01-25T09:10:16;15.80;;;8.45;;
7171;SDS011;3627;46.544;14.944;2023-01-25T09:12:42;14.52;;;8.43;;
7171;SDS011;3627;46.544;14.944;2023-01-25T09:15:09;12.35;;;8.60;;
7171;SDS011;3627;46.544;14.944;2023-01-25T09:17:36;11.82;;;8.25;;
7171;SDS011;3627;46.544;14.944;2023-01-25T09:20:04;10.38;;;7.43;;
7171;SDS011;3627;46.544;14.944;2023-01-25T09:22:31;10.80;;;6.93;;
7171;SDS011;3627;46.544;14.944;2023-01-25T09:24:57;9.23;;;7.43;;
7171;SDS011;3627;46.544;14.944;2023-01-25T09:27:23;12.02;;;10.25;;
7171;SDS011;3627;46.544;14.944;2023-01-25T09:29:50;16.20;;;9.60;;
7171;SDS011;3627;46.544;14.944;2023-01-25T09:32:16;10.45;;;7.97;;
7171;SDS011;3627;46.544;14.944;2023-01-25T09:34:44;12.15;;;8.75;;
7171;SDS011;3627;46.544;14.944;2023-01-25T09:37:10;12.57;;;8.30;;
7171;SDS011;3627;46.544;14.944;2023-01-25T09:39:37;16.23;;;9.65;;
7171;SDS011;3627;46.544;14.944;2023-01-25T09:42:10;16.17;;;10.13;;
7171;SDS011;3627;46.544;14.944;2023-01-25T09:44:43;12.73;;;9.82;;
7171;SDS011;3627;46.544;14.944;2023-01-25T09:47:15;10.93;;;7.57;;
7171;SDS011;3627;46.544;14.944;2023-01-25T09:49:48;9.05;;;6.30;;
7171;SDS011;3627;46.544;14.944;2023-01-25T09:55:01;9.35;;;6.22;;
7171;SDS011;3627;46.544;14.944;2023-01-25T09:57:28;8.38;;;6.78;;
7171;SDS011;3627;46.544;14.944;2023-01-25T09:59:56;14.05;;;9.77;;
7171;SDS011;3627;46.544;14.944;2023-01-25T10:02:30;8.15;;;6.47;;
7171;SDS011;3627;46.544;14.944;2023-01-25T10:05:01;7.25;;;5.93;;
7171;SDS011;3627;46.544;14.944;2023-01-25T10:07:33;6.97;;;5.70;;
7171;SDS011;3627;46.544;14.944;2023-01-25T10:10:07;6.93;;;5.30;;
7171;SDS011;3627;46.544;14.944;2023-01-25T10:12:36;9.13;;;6.68;;
7171;SDS011;3627;46.544;14.944;2023-01-25T10:15:07;7.80;;;5.85;;
7171;SDS011;3627;46.544;14.944;2023-01-25T10:17:42;8.70;;;5.40;;
7171;SDS011;3627;46.544;14.944;2023-01-25T10:20:14;8.75;;;6.65;;
7171;SDS011;3627;46.544;14.944;2023-01-25T10:22:45;7.65;;;5.72;;
7171;SDS011;3627;46.544;14.944;2023-01-25T10:28:04;8.60;;;6.97;;
7171;SDS011;3627;46.544;14.944;2023-01-25T10:30:33;7.68;;;6.28;;
7171;SDS011;3627;46.544;14.944;2023-01-25T10:33:01;10.45;;;6.53;;
7171;SDS011;3627;46.544;14.944;2023-01-25T10:35:33;7.80;;;6.55;;
7171;SDS011;3627;46.544;14.944;2023-01-25T10:38:02;8.60;;;4.93;;
7171;SDS011;3627;46.544;14.944;2023-01-25T10:40:29;12.60;;;8.77;;
7171;SDS011;3627;46.544;14.944;2023-01-25T10:42:58;8.75;;;6.65;;
7171;SDS011;3627;46.544;14.944;2023-01-25T10:45:26;27.45;;;17.17;;
7171;SDS011;3627;46.544;14.944;2023-01-25T10:47:54;15.75;;;11.70;;
7171;SDS011;3627;46.544;14.944;2023-01-25T10:50:47;17.30;;;13.60;;
7171;SDS011;3627;46.544;14.944;2023-01-25T10:56:03;15.95;;;9.57;;
7171;SDS011;3627;46.544;14.944;2023-01-25T10:58:31;22.25;;;12.88;;
7171;SDS011;3627;46.544;14.944;2023-01-25T11:00:57;29.10;;;16.33;;
7171;SDS011;3627;46.544;14.944;2023-01-25T11:03:27;46.78;;;20.25;;
7171;SDS011;3627;46.544;14.944;2023-01-25T11:05:59;35.85;;;17.80;;
7171;SDS011;3627;46.544;14.944;2023-01-25T11:08:31;44.67;;;21.48;;
7171;SDS011;3627;46.544;14.944;2023-01-25T11:10:58;46.58;;;20.58;;
7171;SDS011;3627;46.544;14.944;2023-01-25T11:13:25;17.25;;;9.38;;
7171;SDS011;3627;46.544;14.944;2023-01-25T11:15:52;8.40;;;6.20;;
7171;SDS011;3627;46.544;14.944;2023-01-25T11:18:20;9.55;;;6.65;;
7171;SDS011;3627;46.544;14.944;2023-01-25T11:20:48;9.30;;;6.45;;
7171;SDS011;3627;46.544;14.944;2023-01-25T11:23:29;9.32;;;7.00;;
7171;SDS011;3627;46.544;14.944;2023-01-25T11:26:09;13.82;;;7.20;;
7171;SDS011;3627;46.544;14.944;2023-01-25T11:28:36;13.20;;;8.30;;
7171;SDS011;3627;46.544;14.944;2023-01-25T11:31:04;14.05;;;9.52;;
7171;SDS011;3627;46.544;14.944;2023-01-25T11:33:34;19.25;;;11.05;;
7171;SDS011;3627;46.544;14.944;2023-01-25T11:36:07;18.70;;;11.02;;
7171;SDS011;3627;46.544;14.944;2023-01-25T11:38:35;27.67;;;14.93;;
7171;SDS011;3627;46.544;14.944;2023-01-25T11:41:05;25.02;;;14.20;;
7171;SDS011;3627;46.544;14.944;2023-01-25T11:43:45;19.45;;;11.50;;
7171;SDS011;3627;46.544;14.944;2023-01-25T11:46:20;17.45;;;10.63;;
7171;SDS011;3627;46.544;14.944;2023-01-25T11:48:55;17.15;;;10.70;;
7171;SDS011;3627;46.544;14.944;2023-01-25T11:51:25;15.70;;;10.77;;
7171;SDS011;3627;46.544;14.944;2023-01-25T11:53:57;13.60;;;9.90;;
7171;SDS011;3627;46.544;14.944;2023-01-25T11:56:30;17.92;;;12.15;;
7171;SDS011;3627;46.544;14.944;2023-01-25T11:59:04;13.13;;;8.18;;
7171;SDS011;3627;46.544;14.944;2023-01-25T12:01:35;12.38;;;8.30;;
7171;SDS011;3627;46.544;14.944;2023-01-25T12:04:14;16.23;;;10.00;;
7171;SDS011;3627;46.544;14.944;2023-01-25T12:06:52;14.50;;;10.13;;
7171;SDS011;3627;46.544;14.944;2023-01-25T12:09:31;20.33;;;12.93;;
7171;SDS011;3627;46.544;14.944;2023-01-25T12:12:04;19.27;;;12.77;;
7171;SDS011;3627;46.544;14.944;2023-01-25T12:14:38;23.67;;;14.27;;
7171;SDS011;3627;46.544;14.944;2023-01-25T12:17:12;17.00;;;11.70;;
7171;SDS011;3627;46.544;14.944;2023-01-25T12:19:45;13.70;;;9.88;;
7171;SDS011;3627;46.544;14.944;2023-01-25T12:22:20;13.38;;;7.57;;
7171;SDS011;3627;46.544;14.944;2023-01-25T12:24:53;14.82;;;7.43;;
7171;SDS011;3627;46.544;14.944;2023-01-25T12:27:26;11.10;;;6.47;;
7171;SDS011;3627;46.544;14.944;2023-01-25T12:29:55;10.93;;;7.05;;
7171;SDS011;3627;46.544;14.944;2023-01-25T12:32:25;9.57;;;7.10;;
7171;SDS011;3627;46.544;14.944;2023-01-25T12:35:01;9.82;;;7.53;;
7171;SDS011;3627;46.544;14.944;2023-01-25T12:37:30;10.63;;;8.27;;
7171;SDS011;3627;46.544;14.944;2023-01-25T12:40:00;12.30;;;9.05;;
7171;SDS011;3627;46.544;14.944;2023-01-25T12:42:28;13.50;;;9.30;;
7171;SDS011;3627;46.544;14.944;2023-01-25T12:44:57;14.75;;;8.85;;
7171;SDS011;3627;46.544;14.944;2023-01-25T12:47:27;13.43;;;8.85;;
7171;SDS011;3627;46.544;14.944;2023-01-25T12:49:58;12.55;;;8.98;;
7171;SDS011;3627;46.544;14.944;2023-01-25T12:52:26;13.45;;;8.90;;
7171;SDS011;3627;46.544;14.944;2023-01-25T12:54:55;14.27;;;8.65;;
7171;SDS011;3627;46.544;14.944;2023-01-25T12:57:24;16.55;;;9.13;;
7171;SDS011;3627;46.544;14.944;2023-01-25T12:59:53;13.73;;;10.35;;
7171;SDS011;3627;46.544;14.944;2023-01-25T13:02:36;12.50;;;9.05;;
7171;SDS011;3627;46.544;14.944;2023-01-25T13:05:11;12.07;;;8.80;;
7171;SDS011;3627;46.544;14.944;2023-01-25T13:07:42;11.82;;;7.60;;
7171;SDS011;3627;46.544;14.944;2023-01-25T13:10:13;11.68;;;7.85;;
7171;SDS011;3627;46.544;14.944;2023-01-25T13:12:52;14.65;;;8.80;;
7171;SDS011;3627;46.544;14.944;2023-01-25T13:15:38;15.45;;;9.73;;
7171;SDS011;3627;46.544;14.944;2023-01-25T13:20:50;60.40;;;31.92;;
7171;SDS011;3627;46.544;14.944;2023-01-25T13:23:28;46.22;;;26.45;;
7171;SDS011;3627;46.544;14.944;2023-01-25T13:28:41;17.95;;;11.38;;
7171;SDS011;3627;46.544;14.944;2023-01-25T13:31:09;16.48;;;10.25;;
7171;SDS011;3627;46.544;14.944;2023-01-25T13:33:35;16.63;;;11.52;;
7171;SDS011;3627;46.544;14.944;2023-01-25T13:38:49;18.85;;;12.10;;
7171;SDS011;3627;46.544;14.944;2023-01-25T13:41:15;18.63;;;11.57;;
7171;SDS011;3627;46.544;14.944;2023-01-25T13:43:47;18.38;;;12.90;;
7171;SDS011;3627;46.544;14.944;2023-01-25T13:46:17;15.15;;;10.57;;
7171;SDS011;3627;46.544;14.944;2023-01-25T13:48:50;18.00;;;10.77;;
7171;SDS011;3627;46.544;14.944;2023-01-25T13:51:17;19.80;;;11.45;;
7171;SDS011;3627;46.544;14.944;2023-01-25T13:53:53;18.20;;;10.93;;
7171;SDS011;3627;46.544;14.944;2023-01-25T13:56:23;14.05;;;8.95;;
7171;SDS011;3627;46.544;14.944;2023-01-25T13:58:51;17.63;;;10.80;;
7171;SDS011;3627;46.544;14.944;2023-01-25T14:01:18;17.50;;;11.45;;
7171;SDS011;3627;46.544;14.944;2023-01-25T14:03:48;19.67;;;11.73;;
7171;SDS011;3627;46.544;14.944;2023-01-25T14:06:16;19.27;;;12.52;;
7171;SDS011;3627;46.544;14.944;2023-01-25T14:08:43;19.25;;;11.35;;
7171;SDS011;3627;46.544;14.944;2023-01-25T14:11:10;19.73;;;10.80;;
7171;SDS011;3627;46.544;14.944;2023-01-25T14:13:54;18.70;;;11.23;;
7171;SDS011;3627;46.544;14.944;2023-01-25T14:16:21;19.10;;;11.35;;
7171;SDS011;3627;46.544;14.944;2023-01-25T14:18:47;20.98;;;11.10;;
7171;SDS011;3627;46.544;14.944;2023-01-25T14:21:14;24.42;;;13.02;;
7171;SDS011;3627;46.544;14.944;2023-01-25T14:23:41;19.08;;;12.80;;
7171;SDS011;3627;46.544;14.944;2023-01-25T14:26:15;19.08;;;11.52;;
7171;SDS011;3627;46.544;14.944;2023-01-25T14:28:42;23.92;;;13.60;;
7171;SDS011;3627;46.544;14.944;2023-01-25T14:31:15;26.52;;;12.45;;
7171;SDS011;3627;46.544;14.944;2023-01-25T14:33:43;20.13;;;12.52;;
7171;SDS011;3627;46.544;14.944;2023-01-25T14:36:12;21.98;;;14.70;;
7171;SDS011;3627;46.544;14.944;2023-01-25T14:38:39;25.77;;;13.88;;
7171;SDS011;3627;46.544;14.944;2023-01-25T14:41:10;19.63;;;13.38;;
7171;SDS011;3627;46.544;14.944;2023-01-25T14:43:37;23.77;;;13.10;;
7171;SDS011;3627;46.544;14.944;2023-01-25T14:46:18;22.13;;;12.63;;
7171;SDS011;3627;46.544;14.944;2023-01-25T14:48:44;25.65;;;13.27;;
7171;SDS011;3627;46.544;14.944;2023-01-25T14:51:12;26.88;;;15.02;;
7171;SDS011;3627;46.544;14.944;2023-01-25T14:53:41;23.07;;;14.17;;
7171;SDS011;3627;46.544;14.944;2023-01-25T14:56:23;20.57;;;12.97;;
7171;SDS011;3627;46.544;14.944;2023-01-25T14:58:51;19.05;;;11.70;;
7171;SDS011;3627;46.544;14.944;2023-01-25T15:01:22;22.38;;;11.88;;
7171;SDS011;3627;46.544;14.944;2023-01-25T15:03:50;19.85;;;12.18;;
7171;SDS011;3627;46.544;14.944;2023-01-25T15:06:17;21.33;;;13.27;;
7171;SDS011;3627;46.544;14.944;2023-01-25T15:08:43;23.60;;;13.93;;
7171;SDS011;3627;46.544;14.944;2023-01-25T15:11:20;20.95;;;12.55;;